Time;durP1;ratioP1;P1;durP2;ratioP2;P2;SDS_P1;SDS_P2;PMS_P1;PMS_P2;Temp;Humidity;BMP_temperature;BMP_pressure;BME280_temperature;BME280_humidity;BME280_pressure;Samples;Min_cycle;Max_cycle;Signal;HPM_P1;HPM_P2
2024/04/18 00:02:52;;;;;;;;;;;5.90;99.90;;;;;;9026502;26;19936;-75
2024/04/18 00:06:54;;;;;;;;;;;5.80;99.90;;;;;;9021855;26;19925;-74
2024/04/18 00:10:58;;;;;;;;;;;5.80;99.90;;;;;;9026435;26;20368;-75
2024/04/18 00:15:00;;;;;;;;;;;5.90;99.90;;;;;;9049881;26;19932;-75
2024/04/18 00:19:01;;;;;;;;;;;5.90;99.90;;;;;;9034113;26;19924;-76
2024/04/18 00:23:03;;;;;;;;;;;5.90;99.90;;;;;;9037212;26;19930;-74
2024/04/18 00:27:05;;;;;;;;;;;6.00;99.90;;;;;;9035411;26;19931;-75
2024/04/18 00:31:07;;;;;;;;;;;6.00;99.90;;;;;;9029109;26;20287;-74
2024/04/18 00:35:08;;;;;;;;;;;6.00;99.90;;;;;;9037688;26;19924;-75
2024/04/18 00:39:10;;;;;;;;;;;6.10;99.90;;;;;;9037665;26;20380;-75
2024/04/18 00:43:12;;;;;;;;;;;6.10;99.90;;;;;;9058590;26;20332;-75
2024/04/18 00:47:15;;;;;;;;;;;6.10;99.90;;;;;;9035571;26;19942;-74
2024/04/18 00:51:17;;;;;;;;;;;6.10;99.90;;;;;;9041933;26;20233;-75
2024/04/18 00:55:19;;;;;;;;;;;6.10;99.90;;;;;;9059695;25;19992;-75
2024/04/18 00:59:20;;;;;;;;;;;6.10;99.90;;;;;;9039226;26;19925;-75
2024/04/18 01:03:22;;;;;;;;;;;6.10;99.90;;;;;;9036074;26;19924;-74
2024/04/18 01:07:24;;;;;;;;;;;6.00;99.90;;;;;;9047286;26;19970;-74
2024/04/18 01:11:26;;;;;;;;;;;6.00;99.90;;;;;;9047885;26;20441;-75
2024/04/18 01:15:28;;;;;;;;;;;6.00;99.90;;;;;;9040084;26;19931;-74
2024/04/18 01:19:30;;;;;;;;;;;6.00;99.90;;;;;;9045122;26;19936;-80
2024/04/18 01:23:32;;;;;;;;;;;6.00;99.90;;;;;;9065425;26;19930;-74
2024/04/18 01:27:34;;;;;;;;;;;6.00;99.90;;;;;;9035831;26;19952;-75
2024/04/18 01:31:35;;;;;;;;;;;6.00;99.90;;;;;;9043269;26;19925;-75
2024/04/18 01:35:37;;;;;;;;;;;6.00;99.90;;;;;;9031195;26;19924;-74
2024/04/18 01:39:40;;;;;;;;;;;6.00;99.90;;;;;;9031615;26;19924;-75
2024/04/18 01:43:42;;;;;;;;;;;6.00;99.90;;;;;;9041746;26;19925;-75
2024/04/18 01:47:43;;;;;;;;;;;6.00;99.90;;;;;;9020910;26;20348;-75
2024/04/18 01:51:45;;;;;;;;;;;5.90;99.90;;;;;;9052154;26;19924;-74
2024/04/18 01:55:47;;;;;;;;;;;5.90;99.90;;;;;;9038958;26;19932;-75
2024/04/18 01:59:49;;;;;;;;;;;5.80;99.90;;;;;;9050304;26;19936;-75
2024/04/18 02:03:51;;;;;;;;;;;5.80;99.90;;;;;;9037547;26;20362;-75
2024/04/18 02:07:53;;;;;;;;;;;5.70;99.90;;;;;;9052990;26;20334;-74
2024/04/18 02:11:54;;;;;;;;;;;5.60;99.90;;;;;;9036684;26;19932;-75
2024/04/18 02:15:56;;;;;;;;;;;5.50;99.90;;;;;;9028884;26;19932;-75
2024/04/18 02:19:58;;;;;;;;;;;5.40;99.90;;;;;;9041857;26;20889;-75
2024/04/18 02:24:00;;;;;;;;;;;5.40;99.90;;;;;;9027329;26;20376;-74
2024/04/18 02:28:02;;;;;;;;;;;5.30;99.90;;;;;;9044059;26;19924;-75
2024/04/18 02:32:04;;;;;;;;;;;5.20;99.90;;;;;;9026176;26;20038;-75
2024/04/18 02:36:06;;;;;;;;;;;5.20;99.90;;;;;;9036694;26;19933;-75
2024/04/18 02:40:08;;;;;;;;;;;5.10;99.90;;;;;;9045767;26;19924;-75
2024/04/18 02:44:10;;;;;;;;;;;5.00;99.90;;;;;;9021840;26;19962;-75
2024/04/18 02:48:12;;;;;;;;;;;4.90;99.90;;;;;;9029350;26;20247;-75
2024/04/18 02:52:14;;;;;;;;;;;4.90;99.90;;;;;;9024604;26;20264;-75
2024/04/18 02:56:16;;;;;;;;;;;4.80;99.90;;;;;;9062561;26;20460;-74
2024/04/18 03:00:18;;;;;;;;;;;4.80;99.90;;;;;;9026136;26;19956;-74
2024/04/18 03:04:19;;;;;;;;;;;4.70;99.90;;;;;;9037389;26;20276;-74
2024/04/18 03:08:21;;;;;;;;;;;4.70;99.90;;;;;;9023658;26;20273;-74
2024/04/18 03:12:23;;;;;;;;;;;4.60;99.90;;;;;;9066201;26;19925;-75
2024/04/18 03:16:25;;;;;;;;;;;4.50;99.90;;;;;;9043302;26;19928;-74
2024/04/18 03:20:26;;;;;;;;;;;4.40;99.90;;;;;;9037197;26;19938;-75
2024/04/18 03:24:28;;;;;;;;;;;4.40;99.90;;;;;;9022302;26;19925;-74
2024/04/18 03:28:30;;;;;;;;;;;4.30;99.90;;;;;;9046360;26;19988;-74
2024/04/18 03:32:35;;;;;;;;;;;4.20;99.90;;;;;;9047971;26;20403;-75
2024/04/18 03:36:41;;;;;;;;;;;4.10;99.90;;;;;;9033546;26;19940;-74
2024/04/18 03:40:52;;;;;;;;;;;4.10;99.90;;;;;;9038387;26;19936;-75
2024/04/18 03:44:54;;;;;;;;;;;4.10;99.90;;;;;;9037995;26;19931;-74
2024/04/18 03:48:56;;;;;;;;;;;4.00;99.90;;;;;;9050438;26;19939;-74
2024/04/18 03:52:58;;;;;;;;;;;4.00;99.90;;;;;;9058604;26;19931;-74
2024/04/18 03:56:59;;;;;;;;;;;3.90;99.90;;;;;;9039694;26;20333;-74
2024/04/18 04:01:01;;;;;;;;;;;3.90;99.90;;;;;;9052847;26;19956;-75
2024/04/18 04:05:03;;;;;;;;;;;3.90;99.90;;;;;;9055014;26;19924;-75
2024/04/18 04:09:14;;;;;;;;;;;3.90;99.90;;;;;;9048951;26;19956;-75
2024/04/18 04:13:16;;;;;;;;;;;3.80;99.90;;;;;;9046260;26;20001;-74
2024/04/18 04:17:18;;;;;;;;;;;3.70;99.90;;;;;;9056347;26;19930;-74
2024/04/18 04:21:19;;;;;;;;;;;3.60;99.90;;;;;;9055410;26;19932;-74
2024/04/18 04:25:21;;;;;;;;;;;3.50;99.90;;;;;;9055879;26;19992;-74
2024/04/18 04:29:23;;;;;;;;;;;3.50;99.90;;;;;;9039520;26;19955;-74
2024/04/18 04:33:27;;;;;;;;;;;3.50;99.90;;;;;;9065716;26;20387;-74
2024/04/18 04:37:29;;;;;;;;;;;3.50;99.90;;;;;;9054852;26;19924;-74
2024/04/18 04:41:31;;;;;;;;;;;3.50;99.90;;;;;;9051321;26;19924;-74
2024/04/18 04:45:33;;;;;;;;;;;3.40;99.90;;;;;;9062643;26;19924;-75
2024/04/18 04:49:35;;;;;;;;;;;3.40;99.90;;;;;;9059395;26;19924;-75
2024/04/18 04:53:37;;;;;;;;;;;3.40;99.90;;;;;;9039858;26;19924;-75
2024/04/18 04:57:38;;;;;;;;;;;3.30;99.90;;;;;;9045496;26;19935;-76
2024/04/18 05:01:40;;;;;;;;;;;3.30;99.90;;;;;;9064357;26;19924;-77
2024/04/18 05:05:42;;;;;;;;;;;3.30;99.90;;;;;;9057708;26;19932;-77
2024/04/18 05:09:48;;;;;;;;;;;3.40;99.90;;;;;;9054191;26;19961;-77
2024/04/18 05:13:50;;;;;;;;;;;3.40;99.90;;;;;;9049809;26;20332;-77
2024/04/18 05:17:52;;;;;;;;;;;3.40;99.90;;;;;;9021476;26;19924;-77
2024/04/18 05:21:54;;;;;;;;;;;3.50;99.90;;;;;;9022461;26;20456;-77
2024/04/18 05:25:55;;;;;;;;;;;3.60;99.90;;;;;;9060408;26;19924;-77
2024/04/18 05:34:18;;;;;;;;;;;3.80;99.90;;;;;;9031263;26;19924;-77
2024/04/18 05:38:19;;;;;;;;;;;3.90;99.90;;;;;;9036718;26;19924;-77
2024/04/18 05:42:21;;;;;;;;;;;4.10;99.90;;;;;;9022293;26;19983;-77
2024/04/18 05:46:23;;;;;;;;;;;4.30;99.90;;;;;;9057884;26;20025;-77
2024/04/18 05:50:25;;;;;;;;;;;4.50;99.90;;;;;;9047941;26;19953;-77
2024/04/18 05:54:31;;;;;;;;;;;4.80;99.90;;;;;;9046014;26;19924;-77
2024/04/18 06:03:30;;;;;;;;;;;5.00;99.90;;;;;;9049236;26;19927;-77
2024/04/18 06:07:32;;;;;;;;;;;5.10;99.90;;;;;;9038971;26;20360;-77
2024/04/18 06:11:41;;;;;;;;;;;5.20;99.90;;;;;;9062200;26;19923;-77
2024/04/18 06:15:43;;;;;;;;;;;5.40;99.90;;;;;;9063366;26;19930;-77
2024/04/18 06:19:49;;;;;;;;;;;5.60;99.90;;;;;;9055070;26;19932;-77
2024/04/18 06:23:51;;;;;;;;;;;5.90;99.90;;;;;;9025379;26;19931;-77
2024/04/18 06:27:53;;;;;;;;;;;6.10;99.90;;;;;;9024557;26;19936;-77
2024/04/18 06:31:54;;;;;;;;;;;6.30;99.90;;;;;;9034390;26;19936;-77
2024/04/18 06:35:58;;;;;;;;;;;6.40;99.90;;;;;;9064072;26;19930;-77
2024/04/18 06:40:00;;;;;;;;;;;6.60;99.90;;;;;;9081961;26;19972;-77
2024/04/18 06:44:20;;;;;;;;;;;6.80;99.90;;;;;;9077793;26;20443;-77
2024/04/18 06:48:22;;;;;;;;;;;7.00;99.90;;;;;;9023561;26;19932;-77
2024/04/18 06:52:24;;;;;;;;;;;7.20;99.90;;;;;;9027164;26;20263;-77
2024/04/18 06:56:25;;;;;;;;;;;7.30;99.90;;;;;;9060293;26;20248;-77
2024/04/18 07:00:27;;;;;;;;;;;7.50;99.90;;;;;;9019378;26;19924;-77
2024/04/18 07:04:29;;;;;;;;;;;7.60;99.90;;;;;;9020958;26;19924;-77
2024/04/18 07:08:31;;;;;;;;;;;7.70;99.90;;;;;;9060808;26;19931;-77
2024/04/18 07:12:33;;;;;;;;;;;7.90;99.90;;;;;;9083476;26;19947;-77
2024/04/18 07:16:35;;;;;;;;;;;7.90;99.90;;;;;;9075997;26;19924;-76
2024/04/18 07:20:37;;;;;;;;;;;8.00;99.90;;;;;;9080092;26;20356;-77
2024/04/18 07:24:42;;;;;;;;;;;8.20;99.90;;;;;;9085950;26;19924;-77
2024/04/18 07:28:44;;;;;;;;;;;8.30;99.90;;;;;;9081787;26;19931;-77
2024/04/18 07:32:45;;;;;;;;;;;8.40;99.90;;;;;;9085121;26;19930;-77
2024/04/18 07:36:47;;;;;;;;;;;8.60;99.90;;;;;;9085925;26;19928;-77
2024/04/18 07:40:50;;;;;;;;;;;8.80;99.90;;;;;;9024567;26;19943;-75
2024/04/18 07:44:52;;;;;;;;;;;9.10;99.90;;;;;;9025444;26;19961;-75
2024/04/18 07:49:22;;;;;;;;;;;9.20;99.90;;;;;;9037973;26;19930;-75
2024/04/18 07:53:23;;;;;;;;;;;9.30;99.90;;;;;;9085659;26;19924;-75
2024/04/18 07:57:25;;;;;;;;;;;9.40;99.90;;;;;;9086501;26;19924;-75
2024/04/18 08:01:28;;;;;;;;;;;9.50;99.90;;;;;;9035472;26;19932;-75
2024/04/18 08:05:31;;;;;;;;;;;9.50;99.90;;;;;;9023847;26;20344;-75
2024/04/18 08:09:35;;;;;;;;;;;9.40;99.90;;;;;;9035088;26;19931;-75
2024/04/18 08:13:40;;;;;;;;;;;9.50;99.90;;;;;;9103224;26;20320;-75
2024/04/18 08:17:45;;;;;;;;;;;9.60;99.90;;;;;;9085838;26;19934;-75
2024/04/18 08:21:47;;;;;;;;;;;9.70;99.90;;;;;;9028876;26;19956;-75
2024/04/18 08:25:49;;;;;;;;;;;10.00;99.90;;;;;;9024709;26;19924;-75
2024/04/18 08:29:51;;;;;;;;;;;10.40;99.90;;;;;;9022415;26;19928;-75
2024/04/18 08:33:53;;;;;;;;;;;10.90;99.90;;;;;;9042496;26;19931;-75
2024/04/18 08:38:02;;;;;;;;;;;11.30;99.90;;;;;;9051845;26;19932;-75
2024/04/18 08:42:06;;;;;;;;;;;11.50;99.90;;;;;;9022974;26;19952;-75
2024/04/18 08:46:08;;;;;;;;;;;11.60;99.90;;;;;;9036486;26;19992;-75
2024/04/18 08:50:14;;;;;;;;;;;11.60;99.90;;;;;;9024438;26;20376;-75
2024/04/18 08:54:16;;;;;;;;;;;11.50;99.90;;;;;;9052988;26;19951;-74
2024/04/18 08:58:20;;;;;;;;;;;11.30;99.90;;;;;;9083813;26;19932;-75
2024/04/18 09:02:22;;;;;;;;;;;10.90;99.90;;;;;;9083638;26;19948;-75
2024/04/18 09:06:24;;;;;;;;;;;10.60;99.90;;;;;;9028403;26;19937;-74
2024/04/18 09:10:28;;;;;;;;;;;10.30;99.90;;;;;;9029071;26;19927;-76
2024/04/18 09:14:31;;;;;;;;;;;10.10;99.90;;;;;;9077559;26;19983;-75
2024/04/18 09:18:33;;;;;;;;;;;10.10;99.90;;;;;;9083321;26;19955;-74
2024/04/18 09:22:35;;;;;;;;;;;10.10;99.90;;;;;;9084075;26;19943;-75
2024/04/18 09:26:37;;;;;;;;;;;10.20;99.90;;;;;;9038764;26;19974;-74
2024/04/18 09:30:39;;;;;;;;;;;10.60;99.90;;;;;;9052770;26;20270;-75
2024/04/18 09:34:42;;;;;;;;;;;11.00;99.90;;;;;;9080108;26;19924;-74
2024/04/18 09:38:47;;;;;;;;;;;11.30;99.90;;;;;;9062909;26;19923;-75
2024/04/18 09:43:07;;;;;;;;;;;11.50;99.90;;;;;;9074502;26;19992;-74
2024/04/18 09:47:09;;;;;;;;;;;11.80;99.90;;;;;;9043062;26;20372;-75
2024/04/18 09:51:12;;;;;;;;;;;12.20;99.90;;;;;;9022526;26;19956;-75
2024/04/18 09:55:15;;;;;;;;;;;12.30;99.90;;;;;;9039420;26;20320;-75
2024/04/18 09:59:17;;;;;;;;;;;12.30;99.90;;;;;;9029124;26;19971;-75
2024/04/18 10:03:19;;;;;;;;;;;12.40;99.90;;;;;;9033508;26;19931;-74
2024/04/18 10:07:23;;;;;;;;;;;12.50;99.90;;;;;;9023379;26;19924;-75
2024/04/18 10:11:26;;;;;;;;;;;12.60;99.90;;;;;;9049077;26;19923;-74
2024/04/18 10:15:29;;;;;;;;;;;12.40;99.90;;;;;;9023122;26;19932;-74
2024/04/18 10:19:31;;;;;;;;;;;12.50;99.90;;;;;;9026077;26;19924;-74
2024/04/18 10:23:33;;;;;;;;;;;12.90;99.90;;;;;;9048067;26;19935;-75
2024/04/18 10:27:42;;;;;;;;;;;13.50;99.90;;;;;;9046429;26;19925;-75
2024/04/18 10:31:45;;;;;;;;;;;14.00;99.90;;;;;;9069855;26;19936;-75
2024/04/18 10:35:47;;;;;;;;;;;14.30;99.90;;;;;;9080564;26;19924;-75
2024/04/18 10:39:49;;;;;;;;;;;14.80;99.90;;;;;;9079452;26;20366;-75
2024/04/18 10:43:51;;;;;;;;;;;15.10;99.90;;;;;;9057972;26;19952;-75
2024/04/18 10:47:53;;;;;;;;;;;15.40;99.90;;;;;;9033913;26;20340;-75
2024/04/18 10:51:56;;;;;;;;;;;15.70;99.90;;;;;;9073329;26;19923;-76
2024/04/18 10:55:58;;;;;;;;;;;15.70;99.90;;;;;;9027259;26;19924;-75
2024/04/18 11:00:00;;;;;;;;;;;15.60;99.90;;;;;;9028852;26;19924;-75
2024/04/18 11:04:01;;;;;;;;;;;15.60;99.90;;;;;;9062220;26;20281;-75
2024/04/18 11:08:04;;;;;;;;;;;15.70;99.90;;;;;;9069064;26;19938;-75
2024/04/18 11:12:06;;;;;;;;;;;15.20;99.90;;;;;;9068217;26;19925;-75
2024/04/18 11:16:08;;;;;;;;;;;14.50;99.90;;;;;;9025133;26;19925;-75
2024/04/18 11:20:11;;;;;;;;;;;14.10;99.90;;;;;;9037992;26;19931;-75
2024/04/18 11:24:12;;;;;;;;;;;14.20;99.90;;;;;;9041082;26;20372;-75
2024/04/18 11:28:14;;;;;;;;;;;14.40;99.90;;;;;;9059972;26;20255;-75
2024/04/18 11:32:16;;;;;;;;;;;15.00;99.90;;;;;;9051668;26;19923;-75
2024/04/18 11:36:18;;;;;;;;;;;15.30;99.90;;;;;;9059210;26;19925;-75
2024/04/18 11:40:20;;;;;;;;;;;15.00;99.90;;;;;;9056809;26;20466;-75
2024/04/18 11:44:22;;;;;;;;;;;14.40;99.90;;;;;;9050771;26;19934;-75
2024/04/18 11:48:24;;;;;;;;;;;14.00;99.90;;;;;;9066992;26;19930;-75
2024/04/18 11:52:26;;;;;;;;;;;13.70;99.90;;;;;;9049913;26;19924;-75
2024/04/18 11:56:28;;;;;;;;;;;13.40;99.90;;;;;;9054243;26;19925;-75
2024/04/18 12:00:30;;;;;;;;;;;13.30;99.90;;;;;;9049828;26;19951;-74
2024/04/18 12:04:32;;;;;;;;;;;13.20;99.90;;;;;;9048443;26;19928;-75
2024/04/18 12:08:34;;;;;;;;;;;13.00;99.90;;;;;;9044356;26;19924;-75
2024/04/18 12:12:35;;;;;;;;;;;13.00;99.90;;;;;;9060597;26;20355;-75
2024/04/18 12:16:37;;;;;;;;;;;13.10;99.90;;;;;;9040482;26;19940;-75
2024/04/18 12:20:42;;;;;;;;;;;13.80;99.90;;;;;;9060751;26;19939;-75
2024/04/18 12:24:43;;;;;;;;;;;14.20;99.90;;;;;;9048214;26;19930;-75
2024/04/18 12:28:46;;;;;;;;;;;14.10;99.90;;;;;;9028730;26;19924;-75
2024/04/18 12:32:49;;;;;;;;;;;14.10;99.90;;;;;;9065525;26;19924;-75
2024/04/18 12:36:51;;;;;;;;;;;14.10;99.90;;;;;;9047758;26;19931;-75
2024/04/18 12:40:53;;;;;;;;;;;14.30;99.90;;;;;;9038267;26;20252;-75
2024/04/18 12:44:55;;;;;;;;;;;14.40;99.90;;;;;;9046989;26;19924;-75
2024/04/18 12:48:57;;;;;;;;;;;14.40;99.90;;;;;;9049094;26;20466;-75
2024/04/18 12:52:59;;;;;;;;;;;14.10;99.90;;;;;;9066621;26;19931;-75
2024/04/18 12:57:01;;;;;;;;;;;13.80;99.90;;;;;;9054340;26;19931;-75
2024/04/18 13:01:03;;;;;;;;;;;13.50;99.90;;;;;;9038125;26;19930;-75
2024/04/18 13:05:05;;;;;;;;;;;13.40;99.90;;;;;;9052786;26;20216;-75
2024/04/18 13:09:06;;;;;;;;;;;13.30;99.90;;;;;;9048842;26;19932;-75
2024/04/18 13:13:08;;;;;;;;;;;13.40;99.90;;;;;;9070807;26;19936;-76
2024/04/18 13:17:11;;;;;;;;;;;13.70;99.90;;;;;;9070120;26;19969;-75
2024/04/18 13:21:13;;;;;;;;;;;13.70;99.90;;;;;;9069006;26;19952;-75
2024/04/18 13:25:15;;;;;;;;;;;13.60;99.90;;;;;;9071498;26;20351;-75
2024/04/18 13:29:17;;;;;;;;;;;13.50;99.90;;;;;;9057305;26;19924;-75
2024/04/18 13:33:19;;;;;;;;;;;13.80;99.90;;;;;;9070692;26;19961;-75
2024/04/18 13:37:21;;;;;;;;;;;14.10;99.90;;;;;;9071038;26;19924;-75
2024/04/18 13:41:23;;;;;;;;;;;14.00;99.90;;;;;;9065607;26;19943;-75
2024/04/18 13:45:24;;;;;;;;;;;13.90;99.90;;;;;;9052511;26;19924;-75
2024/04/18 13:49:26;;;;;;;;;;;14.10;99.90;;;;;;9068323;26;20382;-75
2024/04/18 13:53:28;;;;;;;;;;;13.90;99.90;;;;;;9067799;26;20266;-75
2024/04/18 13:57:30;;;;;;;;;;;13.80;99.90;;;;;;9071565;26;19924;-75
2024/04/18 14:01:32;;;;;;;;;;;13.70;99.90;;;;;;9064121;26;23322;-75
2024/04/18 14:05:34;;;;;;;;;;;13.70;99.90;;;;;;9066493;26;20243;-75
2024/04/18 14:09:44;;;;;;;;;;;14.40;99.90;;;;;;9064447;26;19955;-75
2024/04/18 14:13:46;;;;;;;;;;;15.20;99.90;;;;;;9063076;26;19924;-75
2024/04/18 14:22:08;;;;;;;;;;;14.90;99.90;;;;;;9060778;26;20270;-75
2024/04/18 14:26:09;;;;;;;;;;;14.50;99.90;;;;;;9066178;26;19924;-75
2024/04/18 14:30:11;;;;;;;;;;;14.20;99.90;;;;;;9065480;26;19924;-75
2024/04/18 14:34:13;;;;;;;;;;;13.90;99.90;;;;;;9053598;26;19947;-75
2024/04/18 14:38:15;;;;;;;;;;;14.10;99.90;;;;;;9066208;26;19924;-75
2024/04/18 14:42:17;;;;;;;;;;;14.40;99.90;;;;;;9047458;26;19924;-75
2024/04/18 14:46:19;;;;;;;;;;;14.40;99.90;;;;;;9047185;26;19940;-74
2024/04/18 14:50:21;;;;;;;;;;;14.20;99.90;;;;;;9053717;26;19987;-75
2024/04/18 14:54:23;;;;;;;;;;;14.00;99.90;;;;;;9059690;26;19948;-75
2024/04/18 14:58:25;;;;;;;;;;;13.90;99.90;;;;;;9061165;26;19992;-75
2024/04/18 15:02:27;;;;;;;;;;;13.70;99.90;;;;;;9064432;26;19924;-75
2024/04/18 15:06:28;;;;;;;;;;;13.80;99.90;;;;;;9059989;26;19933;-75
2024/04/18 15:10:30;;;;;;;;;;;14.30;99.90;;;;;;9061139;26;19923;-75
2024/04/18 15:14:32;;;;;;;;;;;15.10;99.90;;;;;;9046792;26;19961;-75
2024/04/18 15:18:34;;;;;;;;;;;15.80;99.90;;;;;;9073836;26;19935;-75
2024/04/18 15:22:38;;;;;;;;;;;16.60;99.90;;;;;;9053783;26;19936;-75
2024/04/18 15:26:39;;;;;;;;;;;17.20;99.90;;;;;;9065920;26;19923;-75
2024/04/18 15:30:42;;;;;;;;;;;17.20;99.90;;;;;;9061766;26;19923;-75
2024/04/18 15:34:44;;;;;;;;;;;16.70;99.90;;;;;;9049323;26;20266;-75
2024/04/18 15:38:45;;;;;;;;;;;16.00;99.90;;;;;;9061706;26;19968;-75
2024/04/18 15:42:47;;;;;;;;;;;15.50;99.90;;;;;;9071978;26;19931;-75
2024/04/18 15:46:49;;;;;;;;;;;15.50;99.90;;;;;;9069991;26;20001;-75
2024/04/18 15:50:51;;;;;;;;;;;15.50;99.90;;;;;;9058009;26;20247;-75
2024/04/18 15:55:11;;;;;;;;;;;15.40;99.90;;;;;;9063477;26;19924;-75
2024/04/18 15:59:20;;;;;;;;;;;15.20;99.90;;;;;;9061506;26;20013;-75
2024/04/18 16:03:22;;;;;;;;;;;14.80;99.90;;;;;;9060303;26;20301;-75
2024/04/18 16:07:24;;;;;;;;;;;14.40;99.90;;;;;;9065192;26;19924;-74
2024/04/18 16:11:26;;;;;;;;;;;14.10;99.90;;;;;;9061482;26;19930;-75
2024/04/18 16:15:28;;;;;;;;;;;14.00;99.90;;;;;;9070254;26;19924;-75
2024/04/18 16:19:30;;;;;;;;;;;13.80;99.90;;;;;;9064758;26;20004;-75
2024/04/18 16:23:31;;;;;;;;;;;13.70;99.90;;;;;;9058369;26;19923;-74
2024/04/18 16:27:34;;;;;;;;;;;13.50;99.90;;;;;;9068406;26;19924;-75
2024/04/18 16:31:37;;;;;;;;;;;13.40;99.90;;;;;;9064405;26;19932;-75
2024/04/18 16:35:41;;;;;;;;;;;13.30;99.90;;;;;;9065206;26;19988;-75
2024/04/18 16:39:43;;;;;;;;;;;13.40;99.90;;;;;;9066751;26;19956;-75
2024/04/18 16:43:45;;;;;;;;;;;13.30;99.90;;;;;;9064500;26;19925;-75
2024/04/18 16:47:47;;;;;;;;;;;13.40;99.90;;;;;;9054846;26;19956;-75
2024/04/18 16:51:51;;;;;;;;;;;13.30;99.90;;;;;;9059481;26;20256;-75
2024/04/18 16:55:52;;;;;;;;;;;13.20;99.90;;;;;;9069364;26;20368;-75
2024/04/18 16:59:54;;;;;;;;;;;13.00;99.90;;;;;;9067445;26;19998;-75
2024/04/18 17:03:56;;;;;;;;;;;13.00;99.90;;;;;;9051939;26;20383;-75
2024/04/18 17:07:58;;;;;;;;;;;12.90;99.90;;;;;;9059395;26;19924;-75
2024/04/18 17:12:00;;;;;;;;;;;12.80;99.90;;;;;;9055961;26;19951;-75
2024/04/18 17:16:03;;;;;;;;;;;12.70;99.90;;;;;;9054209;26;19952;-75
2024/04/18 17:20:05;;;;;;;;;;;12.60;99.90;;;;;;9064338;26;19931;-75
2024/04/18 17:24:07;;;;;;;;;;;12.50;99.90;;;;;;9058091;26;19924;-75
2024/04/18 17:28:09;;;;;;;;;;;12.30;99.90;;;;;;9062891;26;19935;-75
2024/04/18 17:32:11;;;;;;;;;;;12.20;99.90;;;;;;9063872;26;19932;-75
2024/04/18 17:36:15;;;;;;;;;;;12.10;99.90;;;;;;9064141;26;19934;-75
2024/04/18 17:40:17;;;;;;;;;;;11.90;99.90;;;;;;9059746;26;19930;-75
2024/04/18 17:44:19;;;;;;;;;;;11.80;99.90;;;;;;9065613;26;19964;-75
2024/04/18 17:48:21;;;;;;;;;;;11.70;99.90;;;;;;9060939;26;20424;-74
2024/04/18 17:52:23;;;;;;;;;;;11.60;99.90;;;;;;9064218;26;20360;-75
2024/04/18 17:56:25;;;;;;;;;;;11.50;99.90;;;;;;9068423;26;19931;-75
2024/04/18 18:00:27;;;;;;;;;;;11.30;99.90;;;;;;9060036;26;19923;-75
2024/04/18 18:04:29;;;;;;;;;;;11.30;99.90;;;;;;9065193;26;19944;-75
2024/04/18 18:08:31;;;;;;;;;;;11.20;99.90;;;;;;9060602;26;19934;-74
2024/04/18 18:12:33;;;;;;;;;;;11.10;99.90;;;;;;9061140;26;19924;-74
2024/04/18 18:16:34;;;;;;;;;;;11.00;99.90;;;;;;9082586;25;20017;-75
2024/04/18 18:20:36;;;;;;;;;;;11.00;99.90;;;;;;9063684;26;19939;-74
2024/04/18 18:24:40;;;;;;;;;;;11.00;99.90;;;;;;9058718;26;19943;-75
2024/04/18 18:28:42;;;;;;;;;;;11.00;99.90;;;;;;9064011;26;19942;-75
2024/04/18 18:32:44;;;;;;;;;;;10.90;99.90;;;;;;9063149;26;19931;-75
2024/04/18 18:36:46;;;;;;;;;;;10.90;99.90;;;;;;9049862;26;19939;-76
2024/04/18 18:40:47;;;;;;;;;;;10.70;99.90;;;;;;9055716;26;19971;-75
2024/04/18 18:44:49;;;;;;;;;;;10.60;99.90;;;;;;9062135;26;19933;-75
2024/04/18 18:48:54;;;;;;;;;;;10.50;99.90;;;;;;9060725;26;19924;-75
2024/04/18 18:52:56;;;;;;;;;;;10.40;99.90;;;;;;9063523;26;23400;-75
2024/04/18 18:56:58;;;;;;;;;;;10.40;99.90;;;;;;9053807;26;19935;-75
2024/04/18 19:01:06;;;;;;;;;;;10.30;99.90;;;;;;9038311;26;19942;-74
2024/04/18 19:05:08;;;;;;;;;;;10.20;99.90;;;;;;9051718;26;19938;-75
2024/04/18 19:09:10;;;;;;;;;;;10.10;99.90;;;;;;9058553;26;19923;-74
2024/04/18 19:13:12;;;;;;;;;;;10.10;99.90;;;;;;9071506;26;19993;-75
2024/04/18 19:17:14;;;;;;;;;;;10.10;99.90;;;;;;9055482;26;20335;-75
2024/04/18 19:21:16;;;;;;;;;;;10.00;99.90;;;;;;9057613;26;20270;-75
2024/04/18 19:25:18;;;;;;;;;;;9.90;99.90;;;;;;9061775;26;19940;-74
2024/04/18 19:29:20;;;;;;;;;;;9.80;99.90;;;;;;9066413;26;19924;-74
2024/04/18 19:33:27;;;;;;;;;;;9.70;99.90;;;;;;9056234;26;20654;-74
2024/04/18 19:37:29;;;;;;;;;;;9.60;99.90;;;;;;9054949;26;20267;-75
2024/04/18 19:41:31;;;;;;;;;;;9.40;99.90;;;;;;9064298;26;19940;-75
2024/04/18 19:45:33;;;;;;;;;;;9.40;99.90;;;;;;9076118;26;19924;-75
2024/04/18 19:49:35;;;;;;;;;;;9.40;99.90;;;;;;9056489;26;19932;-75
2024/04/18 19:53:37;;;;;;;;;;;9.20;99.90;;;;;;9059828;26;20042;-75
2024/04/18 19:57:39;;;;;;;;;;;9.10;99.90;;;;;;9064567;26;19923;-74
2024/04/18 20:01:41;;;;;;;;;;;9.00;99.90;;;;;;9062776;26;19931;-75
2024/04/18 20:05:43;;;;;;;;;;;9.00;99.90;;;;;;9088624;26;20370;-74
2024/04/18 20:09:45;;;;;;;;;;;8.90;99.90;;;;;;9064760;26;19960;-75
2024/04/18 20:13:46;;;;;;;;;;;8.90;99.90;;;;;;9060225;26;20408;-74
2024/04/18 20:17:48;;;;;;;;;;;8.80;99.90;;;;;;9064562;26;20348;-74
2024/04/18 20:21:51;;;;;;;;;;;8.70;99.90;;;;;;9061606;26;19923;-75
2024/04/18 20:25:53;;;;;;;;;;;8.60;99.90;;;;;;9067423;26;19931;-75
2024/04/18 20:34:38;;;;;;;;;;;8.50;99.90;;;;;;9062754;26;19943;-73
2024/04/18 20:38:40;;;;;;;;;;;8.50;99.90;;;;;;9072115;26;19930;-74
2024/04/18 20:42:42;;;;;;;;;;;8.50;99.90;;;;;;9058736;26;19971;-74
2024/04/18 20:46:44;;;;;;;;;;;8.40;99.90;;;;;;9065854;26;19937;-74
2024/04/18 20:50:46;;;;;;;;;;;8.40;99.90;;;;;;9065236;26;21058;-74
2024/04/18 20:54:48;;;;;;;;;;;8.40;99.90;;;;;;9078296;26;19925;-75
2024/04/18 20:58:50;;;;;;;;;;;8.40;99.90;;;;;;9052879;26;20016;-75
2024/04/18 21:02:52;;;;;;;;;;;8.40;99.90;;;;;;9054216;26;20263;-74
2024/04/18 21:06:54;;;;;;;;;;;8.40;99.90;;;;;;9055390;26;19969;-74
2024/04/18 21:10:55;;;;;;;;;;;8.40;99.90;;;;;;9046610;26;19924;-75
2024/04/18 21:14:57;;;;;;;;;;;8.40;99.90;;;;;;9028858;26;19948;-74
2024/04/18 21:18:59;;;;;;;;;;;8.40;99.90;;;;;;9024037;26;19931;-74
2024/04/18 21:23:01;;;;;;;;;;;8.40;99.90;;;;;;9047876;26;19925;-74
2024/04/18 21:27:03;;;;;;;;;;;8.50;99.90;;;;;;9055006;26;20356;-74
2024/04/18 21:31:04;;;;;;;;;;;8.40;99.90;;;;;;9078620;26;20015;-74
2024/04/18 21:35:06;;;;;;;;;;;8.40;99.90;;;;;;9024846;26;19925;-74
2024/04/18 21:39:09;;;;;;;;;;;8.40;99.90;;;;;;9047359;26;19934;-74
2024/04/18 21:43:11;;;;;;;;;;;8.50;99.90;;;;;;9028064;26;19931;-74
2024/04/18 21:47:13;;;;;;;;;;;8.40;99.90;;;;;;9032252;26;19956;-74
2024/04/18 21:51:15;;;;;;;;;;;8.40;99.90;;;;;;9023707;26;19925;-74
2024/04/18 21:55:38;;;;;;;;;;;8.40;99.90;;;;;;9037634;26;20382;-74
2024/04/18 21:59:43;;;;;;;;;;;8.40;99.90;;;;;;9059414;26;19924;-74
2024/04/18 22:03:50;;;;;;;;;;;8.50;99.90;;;;;;9032958;26;20462;-74
2024/04/18 22:07:52;;;;;;;;;;;8.40;99.90;;;;;;9066495;26;19924;-74
2024/04/18 22:11:53;;;;;;;;;;;8.50;99.90;;;;;;9072969;26;20281;-74
2024/04/18 22:15:55;;;;;;;;;;;8.40;99.90;;;;;;9053076;26;19928;-75
2024/04/18 22:19:57;;;;;;;;;;;8.50;99.90;;;;;;9060780;26;19924;-74
2024/04/18 22:23:59;;;;;;;;;;;8.40;99.90;;;;;;9049319;26;19924;-74
2024/04/18 22:28:01;;;;;;;;;;;8.30;99.90;;;;;;9036938;26;19924;-74
2024/04/18 22:32:02;;;;;;;;;;;8.10;99.90;;;;;;9046871;26;19931;-74
2024/04/18 22:36:04;;;;;;;;;;;8.00;99.90;;;;;;9040264;26;19928;-75
2024/04/18 22:40:06;;;;;;;;;;;7.90;99.90;;;;;;9061169;26;20274;-75
2024/04/18 22:44:08;;;;;;;;;;;7.80;99.90;;;;;;9076291;26;19956;-75
2024/04/18 22:48:10;;;;;;;;;;;7.70;99.90;;;;;;9052899;26;19931;-75
2024/04/18 22:52:12;;;;;;;;;;;7.60;99.90;;;;;;9057920;26;19928;-75
2024/04/18 22:56:13;;;;;;;;;;;7.50;99.90;;;;;;9062181;26;19956;-75
2024/04/18 23:00:15;;;;;;;;;;;7.50;99.90;;;;;;9046149;26;19924;-76
2024/04/18 23:04:17;;;;;;;;;;;7.40;99.90;;;;;;9049794;26;19924;-75
2024/04/18 23:08:19;;;;;;;;;;;7.40;99.90;;;;;;9067113;26;19994;-75
2024/04/18 23:12:20;;;;;;;;;;;7.40;99.90;;;;;;9049113;26;20240;-75
2024/04/18 23:16:22;;;;;;;;;;;7.40;99.90;;;;;;9033951;26;19939;-75
2024/04/18 23:20:24;;;;;;;;;;;7.40;99.90;;;;;;9054854;26;19924;-75
2024/04/18 23:24:26;;;;;;;;;;;7.30;99.90;;;;;;9034589;26;20013;-77
2024/04/18 23:28:27;;;;;;;;;;;7.30;99.90;;;;;;9038710;26;20271;-76
2024/04/18 23:32:29;;;;;;;;;;;7.40;99.90;;;;;;9037665;26;19924;-76
2024/04/18 23:36:31;;;;;;;;;;;7.40;99.90;;;;;;9032369;26;20322;-75
2024/04/18 23:40:34;;;;;;;;;;;7.30;99.90;;;;;;9049980;26;19925;-75
2024/04/18 23:44:35;;;;;;;;;;;7.20;99.90;;;;;;9047239;26;19938;-75
2024/04/18 23:48:37;;;;;;;;;;;7.30;99.90;;;;;;9030105;26;19957;-75
2024/04/18 23:52:39;;;;;;;;;;;7.30;99.90;;;;;;9088710;26;19984;-76
2024/04/18 23:56:41;;;;;;;;;;;7.40;99.90;;;;;;9063769;26;19928;-76
